Главная страница
METAR-TAF:

METAR-TAF

Аэропорты :

Эрбиль, Ирак

широта: 36-14-15N, долгота: 43-57-47E, высота над уровнем моря: 415 м

Текущие метеонаблюдения

Эта сводка был подготовлена 35 минут назад, в 02:00 UTC
Ветер 5 Узел от западный-юго-западный
Температура 10°C
Влажность 93%
Давление 1007 hPa
Видимость 10 км и более
Нет облачности ниже 1500 м, и нет кучево-дождевой облачности

METAR: ORER 100200Z 25005KT CAVOK 10/09 Q1007 NOSIG

Время: 05:35 (02:35 UTC)

Прогноз

Эта сводка был подготовлена 10 часа и 35 минут назад, в 16:00 UTC
Прогноз действительный с 09-го 18 UTC до 10-го 18 UTC
Видимость: 8000 м
Отдельные облака на высоте 2500 фута, Кучево-дождевые.
Рассеянная облачность на высоте 4000 фута
гроза, ливневые дожди

TAF: ORER 091600Z 0918/1018 11006 8000 TS SHRA SCT025CB BKN040

Метеонаблюдения и прогнозы для более 4000 аэропортов (сводки METAR и TAF).

Имеющиеся станции представлены на карте желтыми и красными точками.

Чтобы увидеть название станции, наведите на нее мышь.

Затем щелкните, чтобы увидеть метеонаблюдения и метеопрогнозы.

Управление картой: чтобы увеличить масштаб, щелкните зеленые кнопки с черным крестиком; чтобы уменьшить масштаб, щелкните зеленую кнопку с тире; для просмотра соседних карт щелкайте зеленые стрелки.


METAR-TAF: